Time;durP1;ratioP1;P1;durP2;ratioP2;P2;SDS_P1;SDS_P2;PMS_P1;PMS_P2;Temp;Humidity;BMP_temperature;BMP_pressure;BME280_temperature;BME280_humidity;BME280_pressure;Samples;Min_cycle;Max_cycle;Signal;HPM_P1;HPM_P2
2022/09/13 00:01:05;;;;;;;9.60;3.92;;;;;;;14.82;100.00;98698.77;1826977;78;21457;-70
2022/09/13 00:03:32;;;;;;;5.75;4.25;;;;;;;14.81;100.00;98703.30;1827391;78;21080;-71
2022/09/13 00:06:10;;;;;;;5.33;3.27;;;;;;;14.78;100.00;98699.28;1826766;78;20912;-71
2022/09/13 00:08:36;;;;;;;5.47;3.90;;;;;;;14.80;100.00;98702.52;1826938;78;20908;-71
2022/09/13 00:11:21;;;;;;;6.08;4.30;;;;;;;14.83;100.00;98694.84;1821252;78;21028;-70
2022/09/13 00:13:48;;;;;;;4.58;3.85;;;;;;;14.90;100.00;98694.17;1826600;78;20849;-69
2022/09/13 00:16:17;;;;;;;6.90;4.17;;;;;;;14.94;100.00;98697.02;1826881;78;21114;-69
2022/09/13 00:18:44;;;;;;;9.85;4.42;;;;;;;14.92;100.00;98692.41;1826851;78;20897;-69
2022/09/13 00:21:14;;;;;;;6.12;4.03;;;;;;;14.90;100.00;98690.59;1827180;78;21366;-68
2022/09/13 00:23:49;;;;;;;8.88;4.05;;;;;;;14.90;100.00;98686.42;1827101;78;21399;-68
2022/09/13 00:26:19;;;;;;;6.15;4.33;;;;;;;14.90;100.00;98687.23;1827293;78;20952;-69
2022/09/13 00:28:56;;;;;;;7.33;4.67;;;;;;;14.92;100.00;98689.64;1827195;78;21371;-69
2022/09/13 00:31:24;;;;;;;6.62;4.62;;;;;;;14.95;100.00;98694.44;1827285;78;20971;-69
2022/09/13 00:33:50;;;;;;;7.00;4.78;;;;;;;14.95;100.00;98698.59;1827012;78;21027;-70
2022/09/13 00:36:17;;;;;;;9.30;5.62;;;;;;;14.96;100.00;98687.74;1827291;78;20934;-69
2022/09/13 00:38:44;;;;;;;6.30;4.87;;;;;;;14.98;100.00;98690.14;1827233;78;20870;-70
2022/09/13 00:41:14;;;;;;;7.92;5.17;;;;;;;15.00;100.00;98691.36;1827114;78;21395;-70
2022/09/13 00:43:52;;;;;;;5.50;4.87;;;;;;;15.01;100.00;98699.10;1827262;78;20901;-69
2022/09/13 00:46:33;;;;;;;9.83;5.42;;;;;;;15.04;100.00;98688.08;1827105;78;20858;-69
2022/09/13 00:49:21;;;;;;;10.23;5.80;;;;;;;15.06;100.00;98693.25;1827079;78;20952;-70
2022/09/13 00:51:54;;;;;;;7.90;6.12;;;;;;;15.04;100.00;98690.84;1826743;78;21008;-69
2022/09/13 00:54:23;;;;;;;11.12;7.03;;;;;;;15.03;100.00;98689.23;1827454;78;21009;-72
2022/09/13 00:56:58;;;;;;;10.25;6.05;;;;;;;15.04;100.00;98688.08;1824008;78;21444;-70
2022/09/13 00:59:32;;;;;;;10.38;5.72;;;;;;;15.05;100.00;98686.89;1827257;78;20869;-70
2022/09/13 01:02:00;;;;;;;9.63;6.28;;;;;;;15.08;100.00;98686.14;1827094;78;20917;-70
2022/09/13 01:04:32;;;;;;;9.03;6.12;;;;;;;15.06;100.00;98682.15;1818010;78;20889;-70
2022/09/13 01:07:01;;;;;;;9.75;6.20;;;;;;;15.04;100.00;98679.75;1826893;78;21751;-69
2022/09/13 01:09:30;;;;;;;10.28;6.33;;;;;;;15.06;100.00;98684.92;1827164;77;20906;-71
2022/09/13 01:12:07;;;;;;;10.45;6.35;;;;;;;15.09;100.00;98682.80;1824084;78;20975;-70
2022/09/13 01:14:34;;;;;;;11.00;5.72;;;;;;;15.04;100.00;98681.14;1827112;78;20917;-69
2022/09/13 01:17:02;;;;;;;8.08;5.87;;;;;;;15.02;100.00;98683.48;1827174;78;20913;-70
2022/09/13 01:19:31;;;;;;;9.60;6.33;;;;;;;15.01;100.00;98674.14;1823927;78;20941;-68
2022/09/13 01:22:25;;;;;;;6.65;5.28;;;;;;;15.02;100.00;98679.31;1826944;78;20916;-69
2022/09/13 01:25:33;;;;;;;7.47;4.92;;;;;;;14.99;100.00;98678.67;1821032;78;21000;-71
2022/09/13 01:28:35;;;;;;;7.17;5.22;;;;;;;14.98;100.00;98674.89;1811838;78;20969;-70
2022/09/13 01:31:09;;;;;;;8.95;4.22;;;;;;;14.94;100.00;98672.83;1827311;78;20979;-70
2022/09/13 01:33:53;;;;;;;5.70;4.58;;;;;;;14.98;100.00;98676.27;1824173;78;20854;-70
2022/09/13 01:36:59;;;;;;;7.78;5.20;;;;;;;15.01;100.00;98672.15;1826853;78;20877;-71
2022/09/13 01:39:45;;;;;;;6.05;4.78;;;;;;;14.95;100.00;98673.06;1824109;78;21434;-69
2022/09/13 01:42:23;;;;;;;6.30;4.47;;;;;;;14.99;100.00;98677.86;1826993;78;20901;-68
2022/09/13 01:45:13;;;;;;;6.55;5.62;;;;;;;15.00;100.00;98673.91;1826825;78;20858;-70
2022/09/13 01:47:59;;;;;;;8.53;5.12;;;;;;;15.02;100.00;98670.99;1825062;78;21023;-71
2022/09/13 01:50:38;;;;;;;;;;;;;;;14.98;100.00;98671.51;1829712;78;21478;-69
2022/09/13 01:53:26;;;;;;;14.63;5.55;;;;;;;14.96;100.00;98674.66;1827402;78;20075;-70
2022/09/13 01:56:13;;;;;;;8.28;5.83;;;;;;;14.93;100.00;98674.02;1808515;78;21012;-70
2022/09/13 01:58:54;;;;;;;8.28;6.03;;;;;;;14.79;100.00;98675.92;1826800;78;20909;-70
2022/09/13 02:01:31;;;;;;;8.18;5.97;;;;;;;14.79;100.00;98675.92;1827052;78;21837;-71
2022/09/13 02:04:08;;;;;;;10.20;5.67;;;;;;;14.79;100.00;98678.69;1826899;78;20858;-69
2022/09/13 02:06:42;;;;;;;7.10;5.50;;;;;;;14.72;100.00;98672.44;1826985;78;20908;-70
2022/09/13 02:09:14;;;;;;;7.30;5.70;;;;;;;14.72;100.00;98675.81;1823406;78;20980;-70
2022/09/13 02:11:44;;;;;;;10.30;5.42;;;;;;;14.79;100.00;98678.69;1821225;78;21071;-72
2022/09/13 02:14:23;;;;;;;6.45;4.95;;;;;;;14.80;100.00;98677.56;1821243;78;21111;-69
2022/09/13 02:16:55;;;;;;;8.53;5.25;;;;;;;14.83;100.00;98680.98;1821236;78;20949;-70
2022/09/13 02:19:31;;;;;;;6.60;5.33;;;;;;;14.93;100.00;98680.95;1818026;78;20952;-68
2022/09/13 02:22:02;;;;;;;5.62;4.95;;;;;;;14.86;100.00;98679.43;1821206;78;20857;-72
2022/09/13 02:24:32;;;;;;;7.75;5.25;;;;;;;14.90;100.00;98676.14;1821384;78;20831;-73
2022/09/13 02:27:04;;;;;;;11.25;5.35;;;;;;;14.86;100.00;98678.05;1821233;78;21371;-73
2022/09/13 02:29:37;;;;;;;5.85;4.67;;;;;;;14.85;100.00;98683.38;1821240;78;21525;-69
2022/09/13 02:32:09;;;;;;;;;;;;;;;14.84;100.00;98681.19;1823624;78;20973;-71
2022/09/13 02:34:42;;;;;;;6.72;4.28;;;;;;;14.86;100.00;98680.03;1821246;78;20150;-69
2022/09/13 02:37:08;;;;;;;6.10;4.50;;;;;;;14.86;100.00;98682.20;1821170;78;20897;-69
2022/09/13 02:39:39;;;;;;;5.37;4.65;;;;;;;14.90;100.00;98682.27;1801144;78;21141;-71
2022/09/13 02:42:30;;;;;;;7.83;4.55;;;;;;;14.94;100.00;98681.75;1821176;78;20901;-71
2022/09/13 02:45:02;;;;;;;6.20;5.08;;;;;;;14.94;100.00;98682.54;1784088;78;21447;-74
2022/09/13 02:47:41;;;;;;;6.45;5.20;;;;;;;15.05;100.00;98681.92;1821076;78;20926;-71
2022/09/13 02:50:31;;;;;;;10.58;5.70;;;;;;;15.24;100.00;98678.27;1820620;78;20818;-69
2022/09/13 02:53:22;;;;;;;6.47;5.40;;;;;;;15.21;100.00;98676.24;1821541;78;21791;-72
2022/09/13 02:56:27;;;;;;;10.08;6.15;;;;;;;15.13;100.00;98684.24;1817778;78;20952;-71
2022/09/13 02:59:16;;;;;;;6.85;6.03;;;;;;;15.18;100.00;98679.77;1821751;78;20929;-69
2022/09/13 03:01:51;;;;;;;6.78;5.45;;;;;;;15.21;100.00;98681.80;1818018;78;20861;-68
2022/09/13 03:04:18;;;;;;;6.78;4.87;;;;;;;15.33;100.00;98677.44;1820705;78;21442;-70
2022/09/13 03:06:44;;;;;;;8.80;5.58;;;;;;;15.30;100.00;98679.55;1821171;78;21211;-69
2022/09/13 03:09:11;;;;;;;7.45;4.87;;;;;;;15.38;100.00;98678.27;1821080;78;20842;-71
2022/09/13 03:12:22;;;;;;;5.87;4.53;;;;;;;15.37;100.00;98678.85;1802942;78;20937;-70
2022/09/13 03:15:26;;;;;;;6.42;4.72;;;;;;;15.42;100.00;98674.98;1821426;77;20972;-71
2022/09/13 03:18:02;;;;;;;5.53;4.40;;;;;;;15.44;100.00;98672.61;1813165;78;20989;-72
2022/09/13 03:20:47;;;;;;;5.05;4.40;;;;;;;15.40;100.00;98676.73;1821555;77;20993;-72
2022/09/13 03:23:28;;;;;;;6.00;4.67;;;;;;;15.32;100.00;98671.66;1821573;78;20940;-69
2022/09/13 03:26:24;;;;;;;5.50;3.98;;;;;;;15.31;100.00;98680.35;1818367;78;20949;-72
2022/09/13 03:29:12;;;;;;;7.80;4.60;;;;;;;15.28;100.00;98677.75;1821852;78;20897;-72
2022/09/13 03:32:07;;;;;;;6.28;4.20;;;;;;;15.29;100.00;98666.86;1821467;78;20858;-69
2022/09/13 03:34:54;;;;;;;5.80;4.60;;;;;;;15.29;100.00;98659.11;1821672;77;21056;-69
2022/09/13 03:37:48;;;;;;;4.50;4.10;;;;;;;15.25;100.00;98665.98;1814177;78;20909;-71
2022/09/13 03:40:37;;;;;;;5.60;4.62;;;;;;;15.26;100.00;98671.77;1821865;78;20913;-68
2022/09/13 03:43:16;;;;;;;8.80;4.83;;;;;;;15.30;100.00;98672.61;1821766;78;21378;-69
2022/09/13 03:45:57;;;;;;;5.28;4.67;;;;;;;15.28;100.00;98666.66;1796902;78;21054;-71
2022/09/13 03:48:24;;;;;;;5.92;4.22;;;;;;;15.30;100.00;98664.89;1821614;78;21070;-70
2022/09/13 03:50:55;;;;;;;7.67;5.00;;;;;;;15.30;100.00;98671.83;1803498;78;20937;-67
2022/09/13 03:53:26;;;;;;;5.35;4.22;;;;;;;15.41;100.00;98675.55;1821655;77;21009;-66
2022/09/13 03:55:53;;;;;;;6.60;4.70;;;;;;;15.41;100.00;98680.30;1821343;77;20916;-69
2022/09/13 03:58:24;;;;;;;6.35;4.05;;;;;;;15.41;100.00;98687.23;1821325;77;20992;-70
2022/09/13 04:00:53;;;;;;;6.03;5.28;;;;;;;15.43;100.00;98677.95;1821443;78;21105;-70
2022/09/13 04:03:27;;;;;;;7.78;4.72;;;;;;;15.47;100.00;98676.63;1821474;77;20901;-70
2022/09/13 04:05:55;;;;;;;7.12;4.45;;;;;;;15.48;100.00;98678.22;1821516;78;20897;-68
2022/09/13 04:08:22;;;;;;;11.18;4.72;;;;;;;15.51;100.00;98682.44;1821570;78;20990;-69
2022/09/13 04:10:53;;;;;;;10.32;4.17;;;;;;;15.55;100.00;98687.47;1815756;77;20854;-68
2022/09/13 04:13:21;;;;;;;6.40;4.08;;;;;;;15.62;100.00;98697.87;1815506;79;21109;-73
2022/09/13 04:15:49;;;;;;;7.33;4.62;;;;;;;15.73;100.00;98689.67;1815170;79;20972;-71
2022/09/13 04:18:23;;;;;;;5.60;4.70;;;;;;;15.73;100.00;98686.12;1815331;78;20905;-71
2022/09/13 04:20:54;;;;;;;5.50;4.60;;;;;;;15.67;100.00;98690.61;1815418;79;20874;-71
2022/09/13 04:23:22;;;;;;;12.45;5.87;;;;;;;15.63;100.00;98686.97;1815353;79;21466;-71
2022/09/13 04:25:52;;;;;;;9.65;5.85;;;;;;;15.61;100.00;98687.14;1815368;78;20938;-70
2022/09/13 04:28:19;;;;;;;8.23;6.35;;;;;;;15.54;100.00;98690.01;1815590;78;20818;-71
2022/09/13 04:30:46;;;;;;;8.75;6.42;;;;;;;15.52;100.00;98690.19;1815431;79;21478;-70
2022/09/13 04:33:13;;;;;;;9.33;6.67;;;;;;;15.53;100.00;98693.16;1815341;78;20945;-70
2022/09/13 04:35:39;;;;;;;11.35;5.55;;;;;;;15.51;100.00;98687.98;1815734;79;20909;-71
2022/09/13 04:38:07;;;;;;;10.60;6.80;;;;;;;15.48;100.00;98693.48;1815334;79;21224;-69
2022/09/13 04:40:42;;;;;;;15.80;6.95;;;;;;;15.55;100.00;98694.98;1810583;79;20889;-68
2022/09/13 04:43:09;;;;;;;10.58;6.30;;;;;;;15.57;100.00;98690.64;1815311;78;21482;-71
2022/09/13 04:45:36;;;;;;;9.08;6.25;;;;;;;15.60;100.00;98702.18;1815346;79;20925;-71
2022/09/13 04:48:04;;;;;;;9.70;7.70;;;;;;;15.59;100.00;98697.23;1815360;78;20902;-70
2022/09/13 04:50:31;;;;;;;16.73;7.55;;;;;;;15.56;100.00;98696.57;1815674;79;21204;-70
2022/09/13 04:52:58;;;;;;;16.65;8.38;;;;;;;15.61;100.00;98702.41;1815288;78;20814;-73
2022/09/13 04:55:27;;;;;;;13.83;7.85;;;;;;;15.63;100.00;98695.88;1815365;79;21425;-71
2022/09/13 04:57:55;;;;;;;11.33;7.78;;;;;;;15.57;100.00;98689.86;1815625;79;20933;-71
2022/09/13 05:00:25;;;;;;;11.08;7.28;;;;;;;15.56;100.00;98693.80;1815420;78;20952;-72
2022/09/13 05:02:55;;;;;;;9.75;7.47;;;;;;;15.58;100.00;98695.04;1815544;78;21113;-72
2022/09/13 05:05:37;;;;;;;14.55;7.90;;;;;;;15.64;100.00;98699.69;1815738;79;20986;-72
2022/09/13 05:08:02;;;;;;;17.60;8.45;;;;;;;15.55;100.00;98690.24;1813940;78;20937;-71
2022/09/13 05:10:29;;;;;;;15.55;8.50;;;;;;;15.56;100.00;98693.22;1815410;78;20901;-70
2022/09/13 05:12:56;;;;;;;12.45;8.83;;;;;;;15.53;100.00;98693.97;1815428;78;20962;-71
2022/09/13 05:15:24;;;;;;;16.60;8.73;;;;;;;15.58;100.00;98696.42;1815423;78;21819;-67
2022/09/13 05:17:55;;;;;;;16.55;8.78;;;;;;;15.65;100.00;98706.02;1815008;78;21442;-69
2022/09/13 05:20:28;;;;;;;17.62;8.63;;;;;;;15.70;100.00;98698.77;1815438;78;20945;-73
2022/09/13 05:22:55;;;;;;;13.58;9.18;;;;;;;15.73;100.00;98704.17;1815851;79;20945;-72
2022/09/13 05:25:21;;;;;;;14.43;8.55;;;;;;;15.67;100.00;98697.55;1815434;79;21044;-72
2022/09/13 05:27:48;;;;;;;12.90;8.90;;;;;;;15.71;100.00;98705.94;1815607;78;21371;-69
2022/09/13 05:30:14;;;;;;;13.08;8.25;;;;;;;15.75;100.00;98702.60;1815496;78;21446;-73
2022/09/13 05:32:45;;;;;;;16.20;8.55;;;;;;;15.73;100.00;98702.78;1813865;79;21104;-73
2022/09/13 05:35:12;;;;;;;11.15;7.83;;;;;;;15.74;100.00;98704.37;1815577;78;20999;-69
2022/09/13 05:37:39;;;;;;;12.63;8.60;;;;;;;15.71;100.00;98708.71;1815466;79;20973;-72
2022/09/13 05:40:07;;;;;;;8.75;7.47;;;;;;;15.73;100.00;98710.50;1815529;78;21135;-73
2022/09/13 05:42:35;;;;;;;17.27;9.55;;;;;;;15.67;100.00;98703.10;1813506;79;20968;-73
2022/09/13 05:45:02;;;;;;;12.55;9.25;;;;;;;15.61;100.00;98706.58;1815522;78;20862;-73
2022/09/13 05:47:31;;;;;;;14.20;9.03;;;;;;;15.45;100.00;98713.09;1813361;79;20969;-72
2022/09/13 05:49:59;;;;;;;14.07;9.55;;;;;;;15.43;100.00;98711.27;1815493;79;21458;-73
2022/09/13 05:52:25;;;;;;;10.98;8.35;;;;;;;15.43;100.00;98714.84;1815503;79;21290;-71
2022/09/13 05:54:52;;;;;;;11.78;9.10;;;;;;;15.36;100.00;98717.50;1815309;78;20873;-74
2022/09/13 05:57:19;;;;;;;16.07;10.03;;;;;;;15.25;100.00;98720.09;1815501;78;20908;-73
2022/09/13 05:59:46;;;;;;;14.68;10.30;;;;;;;15.23;100.00;98726.63;1815743;78;21509;-70
2022/09/13 06:02:15;;;;;;;17.10;8.75;;;;;;;15.28;100.00;98726.31;1813673;79;20909;-72
2022/09/13 06:04:42;;;;;;;13.28;9.45;;;;;;;15.33;100.00;98727.39;1815486;78;21084;-72
2022/09/13 06:07:11;;;;;;;18.57;9.63;;;;;;;15.36;100.00;98730.57;1815417;79;20964;-72
2022/09/13 06:09:38;;;;;;;14.75;9.30;;;;;;;15.37;100.00;98730.80;1815572;78;21442;-71
2022/09/13 06:12:05;;;;;;;12.07;7.95;;;;;;;15.39;100.00;98740.92;1815207;78;20977;-72
2022/09/13 06:14:32;;;;;;;15.05;9.28;;;;;;;15.46;100.00;98742.43;1815446;78;20995;-73
2022/09/13 06:17:02;;;;;;;15.20;7.90;;;;;;;15.43;100.00;98743.99;1815517;78;20846;-74
2022/09/13 06:19:38;;;;;;;19.73;9.20;;;;;;;15.34;100.00;98747.59;1815266;79;20866;-73
2022/09/13 06:22:05;;;;;;;10.80;7.58;;;;;;;15.19;100.00;98747.95;1815461;78;21005;-71
2022/09/13 06:24:36;;;;;;;13.93;8.65;;;;;;;15.12;100.00;98754.75;1813507;79;20957;-71
2022/09/13 06:27:04;;;;;;;14.73;7.40;;;;;;;15.04;100.00;98754.64;1815423;78;20912;-70
2022/09/13 06:29:31;;;;;;;15.43;8.55;;;;;;;14.98;100.00;98748.39;1815445;78;21984;-72
2022/09/13 06:31:59;;;;;;;13.22;7.72;;;;;;;15.01;100.00;98749.81;1815371;79;20881;-73
2022/09/13 06:34:27;;;;;;;13.03;6.50;;;;;;;15.13;100.00;98759.14;1804665;79;20933;-70
2022/09/13 06:36:54;;;;;;;12.28;6.92;;;;;;;15.15;100.00;98763.75;1814692;78;20878;-70
2022/09/13 06:39:20;;;;;;;9.00;7.05;;;;;;;15.42;100.00;98762.41;1815325;78;20926;-73
2022/09/13 06:41:49;;;;;;;8.20;6.33;;;;;;;15.39;100.00;98758.96;1815290;78;21029;-72
2022/09/13 06:44:20;;;;;;;11.28;7.12;;;;;;;15.57;100.00;98760.66;1814963;78;20957;-74
2022/09/13 06:46:46;;;;;;;10.68;7.12;;;;;;;15.56;100.00;98760.42;1815385;79;20886;-70
2022/09/13 06:49:13;;;;;;;13.10;7.83;;;;;;;15.50;100.00;98757.19;1815529;78;20901;-71
2022/09/13 06:51:39;;;;;;;9.33;7.72;;;;;;;15.37;100.00;98753.78;1804513;79;20896;-69
2022/09/13 06:54:12;;;;;;;15.43;7.95;;;;;;;15.35;100.00;98756.16;1788209;78;21077;-69
2022/09/13 06:56:38;;;;;;;11.95;7.17;;;;;;;15.38;100.00;98758.18;1782099;79;20846;-72
2022/09/13 06:59:07;;;;;;;11.60;8.10;;;;;;;15.35;100.00;98760.89;1784688;79;21032;-68
2022/09/13 07:01:43;;;;;;;9.90;8.05;;;;;;;15.36;100.00;98754.16;1783244;79;21468;-71
2022/09/13 07:04:15;;;;;;;10.18;7.65;;;;;;;15.30;100.00;98754.47;1783406;79;21529;-70
2022/09/13 07:06:45;;;;;;;12.05;9.00;;;;;;;15.28;100.00;98762.97;1814989;79;21875;-68
2022/09/13 07:09:17;;;;;;;15.03;8.38;;;;;;;15.35;100.00;98767.83;1815323;79;21484;-71
2022/09/13 07:11:46;;;;;;;15.10;8.95;;;;;;;15.39;100.00;98765.90;1812174;77;20926;-71
2022/09/13 07:14:25;;;;;;;10.73;8.30;;;;;;;15.42;100.00;98777.06;1815551;78;20969;-69
2022/09/13 07:16:52;;;;;;;11.15;7.83;;;;;;;15.51;100.00;98779.59;1815387;78;21457;-70
2022/09/13 07:19:25;;;;;;;11.03;8.10;;;;;;;15.54;100.00;98776.67;1815310;78;21144;-72
2022/09/13 07:21:52;;;;;;;11.30;7.83;;;;;;;15.52;100.00;98781.79;1814048;78;21056;-71
2022/09/13 07:24:20;;;;;;;19.20;8.20;;;;;;;15.48;100.00;98779.53;1814773;78;21032;-69
2022/09/13 07:26:46;;;;;;;14.40;8.33;;;;;;;15.51;100.00;98781.56;1814678;79;21008;-70
2022/09/13 07:29:15;;;;;;;12.93;8.13;;;;;;;15.41;100.00;98781.02;1814833;78;21033;-70
2022/09/13 07:31:43;;;;;;;14.05;8.50;;;;;;;15.41;100.00;98780.22;1815071;79;21112;-70
2022/09/13 07:34:19;;;;;;;15.23;8.83;;;;;;;15.35;100.00;98782.52;1814890;79;21062;-71
2022/09/13 07:36:45;;;;;;;19.37;9.18;;;;;;;15.34;100.00;98778.12;1814418;79;20949;-72
2022/09/13 07:39:14;;;;;;;12.68;7.65;;;;;;;15.26;100.00;98773.05;1813704;79;21036;-71
2022/09/13 07:41:43;;;;;;;15.85;9.10;;;;;;;15.27;100.00;98779.41;1799442;79;20857;-71
2022/09/13 07:44:10;;;;;;;9.13;7.40;;;;;;;15.19;100.00;98777.89;1814496;78;21516;-70
2022/09/13 07:46:42;;;;;;;8.95;7.55;;;;;;;15.27;100.00;98783.57;1814210;79;21059;-71
2022/09/13 07:49:11;;;;;;;14.87;9.68;;;;;;;15.28;100.00;98783.77;1814808;79;21009;-70
2022/09/13 07:51:39;;;;;;;8.68;7.70;;;;;;;15.27;100.00;98778.80;1815219;79;20965;-72
2022/09/13 07:54:13;;;;;;;15.48;8.83;;;;;;;15.33;100.00;98784.28;1814670;79;20961;-73
2022/09/13 07:56:40;;;;;;;9.88;8.23;;;;;;;15.39;100.00;98782.55;1814718;78;21119;-71
2022/09/13 07:59:14;;;;;;;12.53;7.03;;;;;;;15.42;100.00;98779.06;1804164;79;20909;-69
2022/09/13 08:01:43;;;;;;;10.95;8.35;;;;;;;15.36;100.00;98776.36;1815486;78;21379;-71
2022/09/13 08:04:13;;;;;;;12.40;8.90;;;;;;;15.30;100.00;98774.50;1815348;78;21446;-70
2022/09/13 08:06:40;;;;;;;13.45;9.25;;;;;;;15.34;100.00;98776.73;1814272;78;21450;-72
2022/09/13 08:09:07;;;;;;;12.37;10.15;;;;;;;15.47;100.00;98770.42;1815059;79;21871;-69
2022/09/13 08:11:41;;;;;;;17.80;9.70;;;;;;;15.52;100.00;98759.58;1817161;77;21043;-72
2022/09/13 08:14:29;;;;;;;11.45;8.25;;;;;;;15.51;100.00;98762.94;1826855;78;21014;-74
2022/09/13 08:17:10;;;;;;;10.72;8.23;;;;;;;15.54;100.00;98756.63;1787989;78;20913;-73
2022/09/13 08:19:38;;;;;;;13.00;8.78;;;;;;;15.60;100.00;98757.70;1826968;78;21491;-74
2022/09/13 08:22:04;;;;;;;21.50;9.73;;;;;;;15.56;100.00;98752.91;1808871;78;21073;-72
2022/09/13 08:24:31;;;;;;;9.68;8.58;;;;;;;15.60;100.00;98757.70;1794415;80;20860;-73
2022/09/13 08:26:57;;;;;;;13.00;8.88;;;;;;;15.60;100.00;98759.91;1800768;78;20956;-71
2022/09/13 08:29:26;;;;;;;18.55;8.63;;;;;;;15.72;100.00;98758.09;1826937;78;20936;-70
2022/09/13 08:31:54;;;;;;;11.90;9.05;;;;;;;15.70;100.00;98755.69;1826796;78;20904;-71
2022/09/13 08:34:25;;;;;;;14.47;8.63;;;;;;;15.67;100.00;98753.66;1826937;78;21508;-73
2022/09/13 08:36:52;;;;;;;12.73;8.68;;;;;;;15.66;100.00;98752.84;1808852;78;20857;-71
2022/09/13 08:39:18;;;;;;;17.10;10.58;;;;;;;15.68;100.00;98749.70;1826994;78;20881;-71
2022/09/13 08:41:59;;;;;;;16.95;8.75;;;;;;;15.70;100.00;98752.33;1788045;80;20927;-71
2022/09/13 08:44:44;;;;;;;11.25;8.25;;;;;;;15.72;100.00;98749.17;1771028;81;20925;-71
2022/09/13 08:47:33;;;;;;;12.03;7.95;;;;;;;15.69;100.00;98750.71;1765268;80;21140;-71
2022/09/13 08:50:24;;;;;;;10.18;8.33;;;;;;;15.72;100.00;98753.34;1779493;80;20900;-71
2022/09/13 08:53:14;;;;;;;15.15;7.90;;;;;;;15.68;100.00;98750.50;1779367;80;21497;-72
2022/09/13 08:56:11;;;;;;;14.28;8.20;;;;;;;15.65;100.00;98750.45;1779583;80;20933;-72
2022/09/13 08:58:55;;;;;;;11.15;8.78;;;;;;;15.76;100.00;98747.84;1774938;80;20937;-72
2022/09/13 09:01:34;;;;;;;18.15;9.55;;;;;;;15.66;100.00;98748.69;1753446;80;21861;-73
2022/09/13 09:04:37;;;;;;;15.10;9.98;;;;;;;15.61;100.00;98744.06;1779302;80;20964;-72
2022/09/13 09:07:29;;;;;;;15.90;9.40;;;;;;;15.58;100.00;98742.81;1779600;80;20980;-73
2022/09/13 09:10:24;;;;;;;13.03;9.08;;;;;;;15.46;100.00;98739.66;1685409;85;21496;-71
2022/09/13 09:13:19;;;;;;;12.33;9.30;;;;;;;15.33;100.00;98746.81;1679277;85;20994;-73
2022/09/13 09:15:50;;;;;;;16.82;9.60;;;;;;;15.34;100.00;98743.43;1675602;85;21146;-73
2022/09/13 09:41:52;;;;;;;12.58;8.60;;;;;;;15.76;100.00;98744.45;1760625;81;20869;-74
2022/09/13 10:24:49;;;;;;;18.52;7.72;;;;;;;15.10;100.00;98742.64;1832677;77;22601;-67
2022/09/13 10:27:37;;;;;;;14.85;8.55;;;;;;;15.06;100.00;98745.95;1803876;79;20885;-72
2022/09/13 10:30:31;;;;;;;15.32;7.92;;;;;;;14.92;100.00;98747.88;1791494;79;20988;-71
2022/09/13 10:32:58;;;;;;;9.90;7.47;;;;;;;14.77;100.00;98746.79;1778916;79;20995;-72
2022/09/13 10:35:26;;;;;;;18.92;7.62;;;;;;;14.89;100.00;98742.50;1807662;79;20834;-75
2022/09/13 10:37:53;;;;;;;12.15;7.05;;;;;;;14.75;100.00;98745.77;1794665;79;21469;-69
2022/09/13 10:40:29;;;;;;;25.65;8.70;;;;;;;14.70;100.00;98744.69;1786014;79;20969;-65
2022/09/13 10:43:02;;;;;;;10.80;7.03;;;;;;;14.65;100.00;98745.80;1796601;79;21109;-68
2022/09/13 10:45:31;;;;;;;10.78;7.37;;;;;;;14.73;100.00;98756.42;1806709;79;20921;-72
2022/09/13 10:48:07;;;;;;;12.50;6.25;;;;;;;14.86;100.00;98752.92;1759076;79;21508;-66
2022/09/13 10:50:35;;;;;;;12.73;7.33;;;;;;;14.89;100.00;98752.78;1807484;79;20885;-72
2022/09/13 10:53:03;;;;;;;11.30;7.00;;;;;;;14.88;100.00;98753.94;1774536;79;21474;-74
2022/09/13 10:55:41;;;;;;;12.13;6.78;;;;;;;14.89;100.00;98752.78;1756344;81;21065;-73
2022/09/13 10:58:13;;;;;;;14.50;6.45;;;;;;;14.77;100.00;98754.53;1756287;81;21055;-69
2022/09/13 11:01:34;;;;;;;12.53;6.60;;;;;;;14.78;100.00;98750.58;1756724;81;21533;-74
2022/09/13 11:04:44;;;;;;;8.08;5.75;;;;;;;14.76;100.00;98752.09;1775632;80;20976;-72
2022/09/13 11:07:32;;;;;;;11.78;7.65;;;;;;;14.76;100.00;98746.55;1776024;80;21492;-73
2022/09/13 11:10:10;;;;;;;11.08;6.33;;;;;;;14.85;100.00;98751.33;1775710;79;20993;-71
2022/09/13 11:12:54;;;;;;;12.55;6.00;;;;;;;14.97;100.00;98750.34;1775709;80;20916;-71
2022/09/13 11:15:42;;;;;;;13.15;6.10;;;;;;;15.06;100.00;98750.89;1745009;82;21000;-71
2022/09/13 11:18:21;;;;;;;11.70;6.87;;;;;;;15.15;100.00;98749.88;1726236;82;20953;-73
2022/09/13 11:21:17;;;;;;;9.38;6.37;;;;;;;15.19;100.00;98746.56;1745021;82;20957;-67
2022/09/13 11:24:21;;;;;;;9.40;6.15;;;;;;;15.15;100.00;98749.27;1744692;82;21464;-69
2022/09/13 11:27:04;;;;;;;10.00;6.45;;;;;;;15.20;100.00;98753.70;1744306;82;25677;-72
2022/09/13 11:29:44;;;;;;;10.53;6.22;;;;;;;15.24;100.00;98755.96;1744365;82;21001;-72
2022/09/13 11:32:29;;;;;;;8.23;6.37;;;;;;;15.28;100.00;98758.80;1743920;82;20913;-72
2022/09/13 11:35:34;;;;;;;15.00;6.95;;;;;;;15.24;100.00;98751.80;1744567;82;21025;-71
2022/09/13 11:38:37;;;;;;;9.23;6.35;;;;;;;15.24;100.00;98746.83;1744147;82;21914;-70
2022/09/13 11:41:35;;;;;;;14.13;7.05;;;;;;;15.31;100.00;98749.73;1742571;82;21019;-70
2022/09/13 11:44:57;;;;;;;17.23;7.92;;;;;;;15.32;100.00;98738.25;1690079;82;21008;-70
2022/09/13 11:47:30;;;;;;;17.82;8.50;;;;;;;15.20;100.00;98737.05;1744796;82;20952;-72
2022/09/13 11:50:15;;;;;;;9.80;6.90;;;;;;;15.28;100.00;98740.77;1759843;80;21047;-71
2022/09/13 11:53:07;;;;;;;16.95;8.05;;;;;;;15.35;100.00;98739.50;1752568;80;21227;-73
2022/09/13 11:55:57;;;;;;;12.05;7.75;;;;;;;15.33;100.00;98734.91;1752673;80;20846;-68
2022/09/13 11:58:54;;;;;;;15.38;7.60;;;;;;;15.32;100.00;98740.22;1744101;82;21448;-75
2022/09/13 12:01:27;;;;;;;16.35;7.05;;;;;;;15.28;100.00;98744.34;1743728;82;20977;-74
2022/09/13 12:04:26;;;;;;;11.03;7.37;;;;;;;15.32;100.00;98736.05;1744547;82;21005;-70
2022/09/13 12:06:57;;;;;;;17.62;7.40;;;;;;;15.34;100.00;98740.66;1689521;82;21148;-73
2022/09/13 12:09:32;;;;;;;12.13;7.53;;;;;;;15.27;100.00;98746.89;1744185;82;21026;-71
2022/09/13 12:12:13;;;;;;;13.50;7.75;;;;;;;15.20;100.00;98748.15;1744813;82;21503;-71
2022/09/13 12:15:00;;;;;;;9.40;6.75;;;;;;;15.24;100.00;98745.44;1744365;82;20937;-71
2022/09/13 12:17:37;;;;;;;14.43;7.40;;;;;;;15.27;100.00;98748.89;1744511;82;20908;-73
2022/09/13 12:20:23;;;;;;;15.20;7.45;;;;;;;15.30;100.00;98753.08;1741045;82;20911;-67
2022/09/13 12:22:50;;;;;;;10.90;7.15;;;;;;;15.36;100.00;98752.77;1692156;82;21445;-75
2022/09/13 12:25:21;;;;;;;10.00;6.55;;;;;;;15.41;100.00;98744.13;1744433;82;20885;-70
2022/09/13 12:28:05;;;;;;;12.47;5.90;;;;;;;15.40;100.00;98748.91;1744193;82;21063;-69
2022/09/13 12:30:45;;;;;;;11.95;6.87;;;;;;;15.42;100.00;98754.86;1744568;82;21000;-73
2022/09/13 12:33:14;;;;;;;14.90;6.83;;;;;;;15.39;100.00;98749.25;1743902;82;21158;-72
2022/09/13 12:35:59;;;;;;;9.10;7.00;;;;;;;15.31;100.00;98750.54;1744378;82;20881;-71
2022/09/13 12:38:52;;;;;;;13.88;6.08;;;;;;;15.30;100.00;98753.69;1744684;82;20849;-74
2022/09/13 12:41:47;;;;;;;11.20;6.90;;;;;;;15.25;100.00;98757.55;1742715;82;20980;-70
2022/09/13 12:44:31;;;;;;;11.85;7.35;;;;;;;15.14;100.00;98764.32;1744044;82;20953;-71
2022/09/13 12:47:40;;;;;;;11.15;6.50;;;;;;;15.11;100.00;98762.29;1679570;82;21830;-73
2022/09/13 12:50:26;;;;;;;9.68;6.10;;;;;;;14.98;100.00;98759.48;1744771;82;20959;-71
2022/09/13 12:53:05;;;;;;;6.75;5.05;;;;;;;15.06;100.00;98761.98;1744239;82;20992;-74
2022/09/13 12:56:03;;;;;;;13.93;5.95;;;;;;;15.12;100.00;98770.01;1744326;82;20853;-74
2022/09/13 12:58:51;;;;;;;10.38;6.67;;;;;;;15.20;100.00;98770.34;1742696;82;20897;-72
2022/09/13 13:01:26;;;;;;;13.48;6.37;;;;;;;15.21;100.00;98767.80;1743913;82;21749;-73
2022/09/13 13:04:00;;;;;;;10.58;6.08;;;;;;;15.22;100.00;98765.23;1744410;82;20861;-74
2022/09/13 13:06:32;;;;;;;11.83;6.10;;;;;;;15.24;100.00;98764.28;1744736;82;20984;-72